Time;durP1;ratioP1;P1;durP2;ratioP2;P2;SDS_P1;SDS_P2;PMS_P1;PMS_P2;Temp;Humidity;BMP_temperature;BMP_pressure;BME280_temperature;BME280_humidity;BME280_pressure;Samples;Min_cycle;Max_cycle;Signal;HPM_P1;HPM_P2
2022/04/03 00:01:41;;;;;;;;;3.00;3.00;21.60;99.90;;;;;;5069023;28;8834;-50
2022/04/03 00:04:11;;;;;;;;;3.00;3.00;21.60;99.90;;;;;;5067676;28;9046;-48
2022/04/03 00:06:41;;;;;;;;;4.75;3.00;21.60;99.90;;;;;;5066204;28;8902;-50
2022/04/03 00:09:12;;;;;;;;;1.75;1.75;21.60;99.90;;;;;;5068784;28;9689;-50
2022/04/03 00:11:42;;;;;;;;;3.75;3.75;21.50;99.90;;;;;;5077295;28;9041;-50
2022/04/03 00:14:15;;;;;;;;;5.50;4.00;21.50;99.90;;;;;;5070877;28;8835;-51
2022/04/03 00:16:46;;;;;;;;;2.00;2.00;21.40;99.90;;;;;;5074350;28;8854;-49
2022/04/03 00:19:17;;;;;;;;;2.25;2.25;21.40;99.90;;;;;;5067468;28;8864;-48
2022/04/03 00:21:49;;;;;;;;;3.75;2.50;21.40;99.90;;;;;;5071056;28;8859;-51
2022/04/03 00:24:19;;;;;;;;;2.00;2.00;21.40;99.90;;;;;;5068877;28;8998;-52
2022/04/03 00:26:49;;;;;;;;;1.00;1.00;21.40;99.90;;;;;;5072591;28;8983;-50
2022/04/03 00:29:19;;;;;;;;;2.50;2.50;21.30;99.90;;;;;;5064997;28;9625;-49
2022/04/03 00:31:50;;;;;;;;;3.00;3.00;21.30;99.90;;;;;;5070900;28;8837;-51
2022/04/03 00:34:23;;;;;;;;;2.00;2.00;21.30;99.90;;;;;;5075093;28;8904;-48
2022/04/03 00:36:54;;;;;;;;;5.50;4.00;21.30;99.90;;;;;;5066413;28;8831;-50
2022/04/03 00:39:24;;;;;;;;;2.25;2.25;21.30;99.90;;;;;;5073539;28;8852;-48
2022/04/03 00:41:54;;;;;;;;;2.25;2.25;21.30;99.90;;;;;;5081110;28;8858;-48
2022/04/03 00:44:26;;;;;;;;;2.00;2.00;21.20;99.90;;;;;;5073728;28;8860;-48
2022/04/03 00:46:59;;;;;;;;;3.00;2.75;21.20;99.90;;;;;;5080256;28;9000;-48
2022/04/03 00:49:30;;;;;;;;;3.00;2.00;21.20;99.90;;;;;;5066995;28;8926;-53
2022/04/03 00:52:02;;;;;;;;;2.75;2.75;21.20;99.90;;;;;;5065750;27;9762;-54
2022/04/03 00:54:32;;;;;;;;;4.50;4.00;21.20;99.90;;;;;;5064022;28;8929;-52
2022/04/03 00:57:07;;;;;;;;;2.50;2.50;21.20;99.90;;;;;;5072274;28;8856;-53
2022/04/03 00:59:37;;;;;;;;;2.75;1.50;21.20;99.90;;;;;;5077162;28;8855;-55
2022/04/03 01:02:09;;;;;;;;;4.50;3.00;21.10;99.90;;;;;;5091261;28;9552;-55
2022/04/03 01:04:40;;;;;;;;;2.00;2.00;21.00;99.90;;;;;;5079162;28;8859;-55
2022/04/03 01:07:10;;;;;;;;;3.25;2.00;21.00;99.90;;;;;;5084110;28;8851;-52
2022/04/03 01:09:42;;;;;;;;;3.00;3.00;21.00;99.90;;;;;;5075822;28;9698;-54
2022/04/03 01:12:12;;;;;;;;;4.00;1.00;20.90;99.90;;;;;;5089462;28;8850;-54
2022/04/03 01:15:03;;;;;;;;;3.00;3.00;20.90;99.90;;;;;;5085855;28;9552;-51
2022/04/03 01:17:34;;;;;;;;;2.25;2.00;20.80;99.90;;;;;;5075033;28;8848;-55
2022/04/03 01:20:06;;;;;;;;;4.00;2.00;20.80;99.90;;;;;;5079360;28;8887;-53
2022/04/03 01:22:39;;;;;;;;;4.25;4.25;20.80;99.90;;;;;;5082889;28;9018;-51
2022/04/03 01:25:10;;;;;;;;;2.50;0.00;20.70;99.90;;;;;;5071435;28;8851;-52
2022/04/03 01:27:41;;;;;;;;;2.33;2.33;20.70;99.90;;;;;;5081500;28;8989;-54
2022/04/03 01:30:12;;;;;;;;;2.25;2.25;20.70;99.90;;;;;;5087294;28;9739;-54
2022/04/03 01:32:44;;;;;;;;;5.75;2.75;20.70;99.90;;;;;;5092581;28;8826;-53
2022/04/03 01:35:14;;;;;;;;;2.33;2.33;20.60;99.90;;;;;;5077831;28;8865;-52
2022/04/03 01:37:45;;;;;;;;;1.50;1.50;20.50;99.90;;;;;;5084204;28;9119;-54
2022/04/03 01:40:18;;;;;;;;;3.33;3.00;20.50;99.90;;;;;;5080527;28;9799;-54
2022/04/03 01:42:50;;;;;;;;;1.67;1.67;20.40;99.90;;;;;;5078225;28;8976;-53
2022/04/03 01:45:21;;;;;;;;;3.25;3.25;20.40;99.90;;;;;;5074589;28;8982;-54
2022/04/03 01:47:51;;;;;;;;;3.33;2.00;20.40;99.90;;;;;;5080761;28;9019;-52
2022/04/03 01:50:23;;;;;;;;;2.00;2.00;20.40;99.90;;;;;;5092749;28;9235;-53
2022/04/03 01:52:53;;;;;;;;;3.67;3.67;20.30;99.90;;;;;;5082961;28;9056;-53
2022/04/03 01:55:25;;;;;;;;;6.00;3.00;20.20;99.90;;;;;;5080307;28;9027;-53
2022/04/03 01:57:56;;;;;;;;;3.00;2.00;20.20;99.90;;;;;;5079784;28;8979;-53
2022/04/03 02:00:26;;;;;;;;;2.00;2.00;20.20;99.90;;;;;;5057367;28;9581;-55
2022/04/03 02:02:57;;;;;;;;;4.00;2.33;20.20;99.90;;;;;;5079924;28;9231;-54
2022/04/03 02:05:28;;;;;;;;;3.00;3.00;20.20;99.90;;;;;;5084451;28;9086;-53
2022/04/03 02:07:59;;;;;;;;;3.00;3.00;20.10;99.90;;;;;;5082615;27;9275;-54
2022/04/03 02:10:29;;;;;;;;;3.00;3.00;20.10;99.90;;;;;;5087692;28;9278;-55
2022/04/03 02:13:01;;;;;;;;;2.00;2.00;20.00;99.90;;;;;;5087556;28;9239;-53
2022/04/03 02:15:31;;;;;;;;;3.67;3.00;20.00;99.90;;;;;;5072046;28;9190;-53
2022/04/03 02:18:02;;;;;;;;;3.00;3.00;20.00;99.90;;;;;;5081235;28;9614;-54
2022/04/03 02:20:32;;;;;;;;;4.00;2.67;20.00;99.90;;;;;;5080869;28;10657;-57
2022/04/03 02:23:03;;;;;;;;;2.67;1.00;19.90;99.90;;;;;;5080393;28;9405;-55
2022/04/03 02:25:35;;;;;;;;;5.00;3.33;19.90;99.90;;;;;;5083905;28;9366;-52
2022/04/03 02:28:05;;;;;;;;;3.67;3.67;19.80;99.90;;;;;;5074428;28;9296;-52
2022/04/03 02:30:37;;;;;;;;;6.67;3.00;19.80;99.90;;;;;;5084757;28;9294;-53
2022/04/03 02:33:07;;;;;;;;;6.67;4.33;19.80;99.90;;;;;;5082004;28;9381;-52
2022/04/03 02:35:38;;;;;;;;;3.67;3.00;19.80;99.90;;;;;;5070175;28;9260;-54
2022/04/03 02:38:10;;;;;;;;;3.67;3.67;19.70;99.90;;;;;;5076853;28;9173;-52
2022/04/03 02:40:40;;;;;;;;;5.00;2.00;19.70;99.90;;;;;;5083645;28;9359;-54
2022/04/03 02:43:11;;;;;;;;;3.00;3.00;19.60;99.90;;;;;;5080560;28;9326;-53
2022/04/03 02:45:42;;;;;;;;;3.00;3.00;19.60;99.90;;;;;;5088316;28;9401;-55
2022/04/03 02:48:13;;;;;;;;;3.00;3.00;19.60;99.90;;;;;;5076637;28;9628;-53
2022/04/03 02:50:45;;;;;;;;;1.33;1.33;19.50;99.90;;;;;;5076342;28;9324;-51
2022/04/03 02:53:15;;;;;;;;;2.00;1.33;19.50;99.90;;;;;;5082240;28;10024;-55
2022/04/03 02:55:46;;;;;;;;;4.00;4.00;19.50;99.90;;;;;;5090961;28;9629;-52
2022/04/03 02:58:16;;;;;;;;;1.67;1.67;19.50;99.90;;;;;;5082731;28;9369;-51
2022/04/03 03:00:49;;;;;;;;;3.33;3.00;19.50;99.90;;;;;;5083911;28;9185;-53
2022/04/03 03:03:20;;;;;;;;;2.33;2.33;19.40;99.90;;;;;;5064640;28;9300;-52
2022/04/03 03:05:50;;;;;;;;;2.00;2.00;19.40;99.90;;;;;;5079202;28;9357;-53
2022/04/03 03:08:22;;;;;;;;;3.00;3.00;19.30;99.90;;;;;;5071829;28;9457;-55
2022/04/03 03:10:52;;;;;;;;;4.00;4.00;19.30;99.90;;;;;;5075685;28;9523;-53
2022/04/03 03:13:23;;;;;;;;;3.00;3.00;19.30;99.90;;;;;;5077732;28;9504;-54
2022/04/03 03:15:54;;;;;;;;;3.00;3.00;19.30;99.90;;;;;;5071663;28;9580;-52
2022/04/03 03:18:25;;;;;;;;;4.67;3.67;19.30;99.90;;;;;;5084246;28;9415;-53
2022/04/03 03:20:56;;;;;;;;;4.67;4.67;19.30;99.90;;;;;;5082175;28;9232;-53
2022/04/03 03:23:27;;;;;;;;;1.67;1.67;19.20;99.90;;;;;;5088569;28;9530;-54
2022/04/03 03:25:57;;;;;;;;;2.00;2.00;19.20;99.90;;;;;;5084097;28;10500;-52
2022/04/03 03:28:28;;;;;;;;;4.67;4.00;19.20;99.90;;;;;;5089678;28;9492;-53
2022/04/03 03:30:58;;;;;;;;;4.67;4.67;19.20;99.90;;;;;;5085275;28;9597;-53
2022/04/03 03:33:29;;;;;;;;;3.00;3.00;19.20;99.90;;;;;;5082678;28;9477;-54
2022/04/03 03:36:00;;;;;;;;;4.00;4.00;19.20;99.90;;;;;;5090405;28;9482;-53
2022/04/03 03:38:31;;;;;;;;;5.50;5.50;19.20;99.90;;;;;;5087361;28;9562;-53
2022/04/03 03:41:01;;;;;;;;;6.25;5.00;19.10;99.90;;;;;;5073685;28;9793;-54
2022/04/03 03:43:33;;;;;;;;;4.67;4.67;19.10;99.90;;;;;;5084142;28;9589;-54
2022/04/03 03:46:04;;;;;;;;;5.33;5.33;19.10;99.90;;;;;;5070480;28;10837;-54
2022/04/03 03:48:36;;;;;;;;;5.00;4.00;19.10;99.90;;;;;;5083837;28;9552;-53
2022/04/03 03:51:09;;;;;;;;;8.00;7.25;19.00;99.90;;;;;;5087232;28;9521;-55
2022/04/03 03:53:40;;;;;;;;;5.00;5.00;19.00;99.90;;;;;;5085512;28;9528;-52
2022/04/03 03:56:10;;;;;;;;;4.50;4.00;18.90;99.90;;;;;;5080259;28;9751;-51
2022/04/03 03:58:41;;;;;;;;;3.50;3.50;18.90;99.90;;;;;;5084394;28;9538;-53
2022/04/03 04:01:12;;;;;;;;;4.33;4.33;18.90;99.90;;;;;;5073962;28;9524;-52
2022/04/03 04:03:43;;;;;;;;;5.25;5.25;18.90;99.90;;;;;;5084472;28;10012;-52
2022/04/03 04:06:14;;;;;;;;;3.67;3.67;18.90;99.90;;;;;;5083110;28;9828;-53
2022/04/03 04:08:45;;;;;;;;;5.00;5.00;18.80;99.90;;;;;;5070233;28;9541;-53
2022/04/03 04:11:16;;;;;;;;;9.25;5.50;18.80;99.90;;;;;;5086980;28;9605;-52
2022/04/03 04:13:47;;;;;;;;;3.75;3.75;18.70;99.90;;;;;;5077975;28;9723;-54
2022/04/03 04:16:17;;;;;;;;;5.50;4.00;18.70;99.90;;;;;;5075567;28;11101;-54
2022/04/03 04:18:47;;;;;;;;;3.75;2.50;18.70;99.90;;;;;;5078123;28;9704;-53
2022/04/03 04:21:18;;;;;;;;;4.75;4.75;18.80;99.90;;;;;;5092929;28;9703;-53
2022/04/03 04:23:48;;;;;;;;;2.75;2.25;18.70;99.90;;;;;;5079633;28;9839;-54
2022/04/03 04:26:20;;;;;;;;;0.75;0.75;18.70;99.90;;;;;;5086873;28;9774;-55
2022/04/03 04:28:52;;;;;;;;;4.75;4.00;18.70;99.90;;;;;;5083525;28;9633;-53
2022/04/03 04:31:24;;;;;;;;;6.50;5.25;18.70;99.90;;;;;;5079672;28;9815;-53
2022/04/03 04:33:54;;;;;;;;;5.00;4.75;18.60;99.90;;;;;;5078999;28;9899;-53
2022/04/03 04:36:26;;;;;;;;;7.75;6.00;18.60;99.90;;;;;;5079354;28;9722;-54
2022/04/03 04:39:01;;;;;;;;;5.75;5.75;18.60;99.90;;;;;;5078215;28;9784;-53
2022/04/03 04:41:31;;;;;;;;;4.00;4.00;18.60;99.90;;;;;;5080708;28;9801;-52
2022/04/03 04:44:02;;;;;;;;;9.75;7.50;18.50;99.90;;;;;;5088260;28;9841;-54
2022/04/03 04:46:34;;;;;;;;;7.00;5.25;18.50;99.90;;;;;;5089504;28;9875;-53
2022/04/03 04:49:06;;;;;;;;;4.50;4.50;18.50;99.90;;;;;;5087560;28;10716;-55
2022/04/03 04:51:35;;;;;;;;;5.00;5.00;18.50;99.90;;;;;;5085780;28;9841;-54
2022/04/03 04:54:06;;;;;;;;;8.00;7.00;18.50;99.90;;;;;;5094173;28;9890;-53
2022/04/03 04:56:37;;;;;;;;;8.75;7.50;18.40;99.90;;;;;;5074676;28;10041;-54
2022/04/03 04:59:08;;;;;;;;;7.75;2.75;18.40;99.90;;;;;;5077109;28;10082;-54
2022/04/03 05:01:40;;;;;;;;;8.00;6.75;18.40;99.90;;;;;;5067860;28;9950;-51
2022/04/03 05:04:11;;;;;;;;;10.00;7.25;18.40;99.90;;;;;;5085596;28;10076;-52
2022/04/03 05:06:43;;;;;;;;;7.00;7.00;18.30;99.90;;;;;;5064997;28;10089;-54
2022/04/03 05:09:14;;;;;;;;;4.75;4.50;18.30;99.90;;;;;;5078430;28;10675;-53
2022/04/03 05:11:46;;;;;;;;;8.00;8.00;18.30;99.90;;;;;;5075842;28;10068;-52
2022/04/03 05:14:16;;;;;;;;;7.00;7.00;18.20;99.90;;;;;;5083847;28;10703;-52
2022/04/03 05:16:47;;;;;;;;;6.25;6.25;18.20;99.90;;;;;;5084280;28;10193;-56
2022/04/03 05:19:18;;;;;;;;;7.25;7.25;18.20;99.90;;;;;;5085344;28;9844;-51
2022/04/03 05:21:50;;;;;;;;;5.50;4.00;18.20;99.90;;;;;;5083924;28;10237;-54
2022/04/03 05:24:22;;;;;;;;;8.75;5.75;18.10;99.90;;;;;;5089754;28;9982;-53
2022/04/03 05:26:52;;;;;;;;;8.00;5.25;18.20;99.90;;;;;;5085267;28;10055;-54
2022/04/03 05:29:23;;;;;;;;;5.25;5.25;18.20;99.90;;;;;;5086090;28;9937;-52
2022/04/03 05:31:54;;;;;;;;;7.25;5.25;18.10;99.90;;;;;;5095527;28;10036;-50
2022/04/03 05:34:24;;;;;;;;;8.25;6.50;18.10;99.90;;;;;;5079168;27;10163;-53
2022/04/03 05:36:56;;;;;;;;;6.75;6.75;18.10;99.90;;;;;;5082743;28;10017;-53
2022/04/03 05:39:28;;;;;;;;;7.25;7.25;18.10;99.90;;;;;;5067549;28;10029;-52
2022/04/03 05:41:59;;;;;;;;;6.75;6.75;18.10;99.90;;;;;;5077603;28;10155;-53
2022/04/03 05:44:29;;;;;;;;;3.75;3.75;18.00;99.90;;;;;;5083651;28;10183;-53
2022/04/03 05:46:59;;;;;;;;;7.50;5.75;18.00;99.90;;;;;;5082358;28;10063;-53
2022/04/03 05:49:30;;;;;;;;;4.25;4.25;18.00;99.90;;;;;;5081493;28;10190;-56
2022/04/03 05:52:01;;;;;;;;;6.00;5.75;17.90;99.90;;;;;;5086165;28;10372;-55
2022/04/03 05:54:31;;;;;;;;;3.75;3.75;17.90;99.90;;;;;;5083378;27;10476;-53
2022/04/03 05:57:05;;;;;;;;;6.75;5.25;17.90;99.90;;;;;;5076878;28;10499;-52
2022/04/03 05:59:37;;;;;;;;;5.75;4.50;17.80;99.90;;;;;;5072810;28;10669;-54
2022/04/03 06:02:12;;;;;;;;;6.00;5.00;17.80;99.90;;;;;;5076981;28;10580;-50
2022/04/03 06:04:43;;;;;;;;;10.25;7.25;17.70;99.90;;;;;;5072514;28;10667;-52
2022/04/03 06:07:13;;;;;;;;;8.75;8.75;17.70;99.90;;;;;;5081253;28;11028;-54
2022/04/03 06:09:44;;;;;;;;;10.50;10.50;17.70;99.90;;;;;;5072666;28;10962;-52
2022/04/03 06:12:15;;;;;;;;;17.00;15.50;17.70;99.90;;;;;;5068389;28;11463;-54
2022/04/03 06:14:46;;;;;;;;;19.00;15.00;17.70;99.90;;;;;;5067916;28;11736;-52
2022/04/03 06:17:17;;;;;;;;;15.00;15.00;17.60;99.90;;;;;;5068554;28;11610;-52
2022/04/03 06:19:49;;;;;;;;;15.25;13.50;17.60;99.90;;;;;;5066942;28;11480;-54
2022/04/03 06:22:20;;;;;;;;;18.75;18.75;17.60;99.90;;;;;;5075931;28;11607;-55
2022/04/03 06:24:51;;;;;;;;;26.75;26.25;17.50;99.90;;;;;;5089636;28;12219;-52
2022/04/03 06:27:22;;;;;;;;;37.00;32.00;17.50;99.90;;;;;;5065350;28;11499;-54
2022/04/03 06:29:52;;;;;;;;;39.50;35.00;17.50;99.90;;;;;;5065639;28;11507;-64
2022/04/03 06:32:24;;;;;;;;;39.75;34.50;17.40;99.90;;;;;;5064704;28;11633;-58
2022/04/03 06:34:54;;;;;;;;;33.75;30.75;17.40;99.90;;;;;;5065341;28;12372;-58
2022/04/03 06:37:24;;;;;;;;;29.00;28.50;17.40;99.90;;;;;;5061694;28;11640;-59
2022/04/03 06:39:55;;;;;;;;;26.50;26.25;17.40;99.90;;;;;;5069558;28;11706;-59
2022/04/03 06:42:29;;;;;;;;;22.50;22.50;17.40;99.90;;;;;;5071451;28;11510;-59
2022/04/03 06:45:02;;;;;;;;;21.25;18.50;17.30;99.90;;;;;;5068053;28;11720;-58
2022/04/03 06:47:32;;;;;;;;;19.00;16.50;17.30;99.90;;;;;;5063029;28;11557;-59
2022/04/03 06:50:05;;;;;;;;;11.50;9.75;17.30;99.90;;;;;;5065309;28;11731;-57
2022/04/03 06:52:36;;;;;;;;;9.50;9.50;17.30;99.90;;;;;;5063394;28;11540;-59
2022/04/03 06:55:09;;;;;;;;;11.50;10.00;17.20;99.90;;;;;;5073943;28;11486;-58
2022/04/03 06:57:41;;;;;;;;;17.25;14.75;17.20;99.90;;;;;;5073938;28;11492;-59
2022/04/03 07:00:13;;;;;;;;;24.25;21.25;17.20;99.90;;;;;;5072871;28;11532;-61
2022/04/03 07:02:43;;;;;;;;;28.75;27.50;17.20;99.90;;;;;;5049048;28;11548;-59
2022/04/03 07:05:15;;;;;;;;;25.00;24.50;17.10;99.90;;;;;;5091222;28;11643;-59
2022/04/03 07:07:46;;;;;;;;;19.75;18.25;17.10;99.90;;;;;;5076759;28;11523;-58
2022/04/03 07:10:19;;;;;;;;;12.75;12.75;17.10;99.90;;;;;;5053518;28;11594;-58
2022/04/03 07:12:50;;;;;;;;;10.50;7.50;17.10;99.90;;;;;;5086231;28;12329;-60
2022/04/03 07:15:20;;;;;;;;;7.00;7.00;17.10;99.90;;;;;;5077970;28;11340;-59
2022/04/03 07:17:52;;;;;;;;;10.25;8.50;17.00;99.90;;;;;;5078499;27;11105;-59
2022/04/03 07:20:23;;;;;;;;;7.50;7.50;17.00;99.90;;;;;;5077942;28;10824;-57
2022/04/03 07:22:55;;;;;;;;;13.25;12.00;17.00;99.90;;;;;;5072449;28;11974;-59
2022/04/03 07:25:26;;;;;;;;;6.00;6.00;17.00;99.90;;;;;;5073683;28;10628;-58
2022/04/03 07:27:57;;;;;;;;;9.50;9.50;16.90;99.90;;;;;;5083715;28;10688;-58
2022/04/03 07:30:28;;;;;;;;;8.75;8.75;16.90;99.90;;;;;;5071468;28;10723;-58
2022/04/03 07:32:58;;;;;;;;;6.00;6.00;16.90;99.90;;;;;;5065860;28;10809;-60
2022/04/03 07:35:28;;;;;;;;;8.50;8.50;16.90;99.90;;;;;;5076583;28;11181;-59
2022/04/03 07:37:58;;;;;;;;;11.75;11.75;16.80;99.90;;;;;;5078828;28;10736;-58
2022/04/03 07:40:28;;;;;;;;;6.50;6.50;16.80;99.90;;;;;;5075560;28;11465;-58
2022/04/03 07:43:19;;;;;;;;;6.50;6.50;16.80;99.90;;;;;;5082958;28;11355;-59
2022/04/03 07:45:50;;;;;;;;;6.75;6.75;16.80;99.90;;;;;;5075865;28;11461;-58
2022/04/03 07:48:21;;;;;;;;;10.00;7.75;16.70;99.90;;;;;;5073211;28;10743;-59
2022/04/03 07:50:52;;;;;;;;;8.00;6.50;16.80;99.90;;;;;;5071407;28;10719;-58
2022/04/03 07:53:23;;;;;;;;;6.50;6.50;16.70;99.90;;;;;;5087007;28;10968;-59
2022/04/03 07:55:55;;;;;;;;;7.25;7.25;16.60;99.90;;;;;;5081555;28;11340;-58
2022/04/03 07:58:25;;;;;;;;;9.50;7.50;16.60;99.90;;;;;;5071362;28;10444;-58
2022/04/03 08:00:56;;;;;;;;;8.25;8.25;16.60;99.90;;;;;;5087850;28;10806;-58
2022/04/03 08:03:27;;;;;;;;;13.00;12.75;16.60;99.90;;;;;;5076730;28;11207;-59
2022/04/03 08:05:59;;;;;;;;;10.00;9.75;16.60;99.90;;;;;;5073480;28;11854;-57
2022/04/03 08:08:30;;;;;;;;;9.00;8.25;16.50;99.90;;;;;;5065272;28;11060;-58
2022/04/03 08:11:01;;;;;;;;;9.00;8.50;16.50;99.90;;;;;;5079130;28;10625;-59
2022/04/03 08:13:32;;;;;;;;;4.75;4.75;16.50;99.90;;;;;;5079036;28;10718;-58
2022/04/03 08:16:04;;;;;;;;;6.00;4.75;16.40;99.90;;;;;;5070817;28;10631;-58
2022/04/03 08:18:35;;;;;;;;;11.25;7.50;16.40;99.90;;;;;;5072885;28;10720;-59
2022/04/03 08:21:05;;;;;;;;;9.00;6.75;16.40;99.90;;;;;;5087547;28;10902;-58
2022/04/03 08:23:36;;;;;;;;;7.50;7.50;16.40;99.90;;;;;;5077773;28;11420;-59
2022/04/03 08:26:07;;;;;;;;;15.25;7.25;16.30;99.90;;;;;;5075176;28;10743;-58
2022/04/03 08:28:38;;;;;;;;;7.00;7.00;16.30;99.90;;;;;;5070036;27;10559;-57
2022/04/03 08:31:08;;;;;;;;;7.00;5.00;16.30;99.90;;;;;;5067926;28;11185;-59
2022/04/03 08:33:40;;;;;;;;;9.00;7.75;16.20;99.90;;;;;;5076644;28;11120;-59
2022/04/03 08:36:11;;;;;;;;;11.00;7.00;16.20;99.90;;;;;;5072030;28;10955;-59
2022/04/03 08:38:42;;;;;;;;;8.50;7.00;16.20;99.90;;;;;;5076676;28;10891;-58
2022/04/03 08:41:13;;;;;;;;;9.75;7.25;16.20;99.90;;;;;;5067749;27;10812;-58
2022/04/03 08:43:47;;;;;;;;;8.25;6.50;16.20;99.90;;;;;;5083697;28;10851;-58
2022/04/03 08:46:18;;;;;;;;;9.25;8.25;16.20;99.90;;;;;;5059520;28;10810;-59
2022/04/03 08:48:49;;;;;;;;;8.50;5.00;16.10;99.90;;;;;;5072129;28;10868;-59
2022/04/03 08:51:20;;;;;;;;;9.25;8.00;16.10;99.90;;;;;;5077501;28;10736;-57
2022/04/03 08:53:52;;;;;;;;;7.75;6.25;16.10;99.90;;;;;;5071430;28;10730;-59
2022/04/03 08:56:23;;;;;;;;;8.50;7.00;16.00;99.90;;;;;;5068571;28;10603;-58
2022/04/03 08:58:53;;;;;;;;;5.50;5.50;16.00;99.90;;;;;;5070235;28;10902;-58
2022/04/03 09:01:23;;;;;;;;;8.75;6.75;16.00;99.90;;;;;;5073372;28;11101;-58
2022/04/03 09:03:53;;;;;;;;;8.25;8.00;16.00;99.90;;;;;;5076853;28;11053;-58
2022/04/03 09:06:25;;;;;;;;;7.25;6.50;15.90;99.90;;;;;;5067262;28;11602;-57
2022/04/03 09:08:56;;;;;;;;;6.25;6.25;15.90;99.90;;;;;;5071331;28;10826;-57
2022/04/03 09:11:30;;;;;;;;;8.50;8.50;15.90;99.90;;;;;;5079600;28;10745;-58
2022/04/03 09:14:12;;;;;;;;;7.75;7.75;15.90;99.90;;;;;;5064101;28;10968;-58
2022/04/03 09:16:42;;;;;;;;;8.75;7.25;15.90;99.90;;;;;;5077560;28;10709;-58
2022/04/03 09:19:14;;;;;;;;;6.00;6.00;15.90;99.90;;;;;;5066508;28;11095;-58
2022/04/03 09:21:45;;;;;;;;;5.25;5.25;15.80;99.90;;;;;;5068793;28;10969;-57
2022/04/03 09:24:15;;;;;;;;;9.00;7.75;15.80;99.90;;;;;;5077564;28;10953;-59
2022/04/03 09:26:58;;;;;;;;;2.25;2.25;15.80;99.90;;;;;;5067636;28;10914;-58
2022/04/03 09:29:29;;;;;;;;;5.50;5.50;15.70;99.90;;;;;;5075663;28;10888;-58
2022/04/03 09:32:02;;;;;;;;;9.25;8.00;15.70;99.90;;;;;;5066286;28;11232;-59
2022/04/03 09:34:33;;;;;;;;;8.00;6.25;15.70;99.90;;;;;;5072559;28;11786;-58
2022/04/03 09:37:05;;;;;;;;;11.50;11.00;15.60;99.90;;;;;;5072213;28;11154;-58
2022/04/03 09:39:36;;;;;;;;;12.25;7.75;15.60;99.90;;;;;;5075685;28;11400;-58
2022/04/03 09:42:12;;;;;;;;;5.75;4.00;15.60;99.90;;;;;;5068535;28;11095;-57
2022/04/03 09:44:44;;;;;;;;;9.00;7.50;15.60;99.90;;;;;;5071630;28;11649;-59
2022/04/03 09:47:20;;;;;;;;;8.50;8.00;15.60;99.90;;;;;;5076763;28;10816;-59
2022/04/03 09:50:05;;;;;;;;;9.25;9.00;15.60;99.90;;;;;;5074282;27;12365;-58
2022/04/03 09:52:48;;;;;;;;;9.50;7.50;15.60;99.90;;;;;;5070576;28;11235;-58
2022/04/03 09:55:27;;;;;;;;;5.00;5.00;15.60;99.90;;;;;;5073381;28;11157;-59
2022/04/03 09:58:06;;;;;;;;;7.25;7.25;15.50;99.90;;;;;;5068719;28;11109;-58
2022/04/03 10:00:46;;;;;;;;;6.75;6.50;15.50;99.90;;;;;;5062951;28;12002;-59
2022/04/03 10:03:17;;;;;;;;;8.25;8.00;15.40;99.90;;;;;;5068453;28;11112;-62
2022/04/03 10:05:49;;;;;;;;;9.25;8.75;15.40;99.90;;;;;;5082911;28;12224;-58
2022/04/03 10:08:24;;;;;;;;;10.25;7.25;15.40;99.90;;;;;;5073416;28;11465;-58
2022/04/03 10:10:56;;;;;;;;;8.75;8.75;15.40;99.90;;;;;;5073366;28;11060;-58
2022/04/03 10:13:28;;;;;;;;;8.00;8.00;15.40;99.90;;;;;;5072708;28;11075;-59
2022/04/03 10:15:58;;;;;;;;;11.50;11.25;15.30;99.90;;;;;;5055214;28;11103;-59
2022/04/03 10:18:28;;;;;;;;;5.50;5.50;15.30;99.90;;;;;;5066008;28;11163;-59
2022/04/03 10:21:00;;;;;;;;;8.75;8.75;15.30;99.90;;;;;;5053128;28;11439;-59
2022/04/03 10:23:33;;;;;;;;;6.50;6.50;15.30;99.90;;;;;;5075118;28;11218;-59
2022/04/03 10:26:05;;;;;;;;;9.75;8.75;15.20;99.90;;;;;;5072955;28;11224;-58
2022/04/03 10:28:41;;;;;;;;;7.25;7.25;15.20;99.90;;;;;;5079354;28;11201;-59
2022/04/03 10:31:16;;;;;;;;;10.00;8.25;15.20;99.90;;;;;;5067776;28;11029;-58
2022/04/03 10:33:52;;;;;;;;;6.00;6.00;15.10;99.90;;;;;;5071109;28;11457;-60
2022/04/03 10:36:29;;;;;;;;;10.25;6.50;15.10;99.90;;;;;;5074247;28;11265;-58
2022/04/03 10:39:11;;;;;;;;;12.75;11.25;15.10;99.90;;;;;;5074942;28;11463;-58
2022/04/03 10:41:42;;;;;;;;;7.75;7.75;15.10;99.90;;;;;;5071253;28;11533;-59
2022/04/03 10:44:24;;;;;;;;;11.75;9.25;15.10;99.90;;;;;;5067719;28;11408;-58
2022/04/03 10:47:04;;;;;;;;;8.75;8.00;15.00;99.90;;;;;;5066976;28;11946;-58
2022/04/03 10:50:00;;;;;;;;;8.25;8.25;15.00;99.90;;;;;;5068682;28;12226;-59
2022/04/03 10:52:36;;;;;;;;;8.00;6.25;15.00;99.90;;;;;;5069006;28;12207;-58
2022/04/03 10:55:20;;;;;;;;;9.75;9.75;14.90;99.90;;;;;;5080101;28;11448;-57
2022/04/03 10:57:58;;;;;;;;;10.00;10.00;14.90;99.90;;;;;;5070864;28;11516;-59
2022/04/03 11:00:34;;;;;;;;;11.00;9.75;14.90;99.90;;;;;;5070088;28;11520;-58
2022/04/03 11:03:15;;;;;;;;;7.00;7.00;14.90;99.90;;;;;;5067793;28;11477;-58
2022/04/03 11:05:47;;;;;;;;;9.75;7.75;14.80;99.90;;;;;;5075931;28;11427;-59
2022/04/03 11:08:39;;;;;;;;;8.25;8.25;14.80;99.90;;;;;;5070152;28;12626;-58
2022/04/03 11:11:11;;;;;;;;;7.75;6.50;14.70;99.90;;;;;;5073294;28;11505;-58
2022/04/03 11:13:42;;;;;;;;;10.00;8.00;14.70;99.90;;;;;;5063508;28;11480;-58
2022/04/03 11:16:13;;;;;;;;;11.75;9.75;14.70;99.90;;;;;;5074787;28;11429;-59
2022/04/03 11:18:49;;;;;;;;;9.25;9.25;14.70;99.90;;;;;;5065784;28;11511;-58
2022/04/03 11:21:30;;;;;;;;;9.75;9.75;14.70;99.90;;;;;;5066687;28;11471;-57
2022/04/03 11:24:26;;;;;;;;;9.25;9.25;14.70;99.90;;;;;;5064491;28;11551;-58
2022/04/03 11:26:57;;;;;;;;;9.00;7.25;14.60;99.90;;;;;;5067408;28;11521;-58
2022/04/03 11:29:28;;;;;;;;;10.25;9.00;14.60;99.90;;;;;;5064687;28;11654;-57
2022/04/03 11:31:58;;;;;;;;;9.00;8.00;14.60;99.90;;;;;;5052314;28;11459;-58
2022/04/03 11:34:32;;;;;;;;;13.25;10.00;14.60;99.90;;;;;;5065269;28;11488;-57
2022/04/03 11:37:05;;;;;;;;;10.25;10.00;14.60;99.90;;;;;;5077102;28;11516;-58
2022/04/03 11:39:40;;;;;;;;;8.50;8.50;14.60;99.90;;;;;;5064426;28;11620;-60
2022/04/03 11:42:12;;;;;;;;;9.00;9.00;14.60;99.90;;;;;;5080383;28;11458;-58
2022/04/03 11:44:52;;;;;;;;;7.75;7.75;14.50;99.90;;;;;;5078883;28;11450;-58
2022/04/03 11:47:28;;;;;;;;;9.00;7.75;14.50;99.90;;;;;;5074764;28;11460;-58
2022/04/03 11:50:11;;;;;;;;;8.75;8.25;14.50;99.90;;;;;;5069977;27;11456;-58
2022/04/03 11:52:41;;;;;;;;;11.00;9.50;14.50;99.90;;;;;;5065166;28;12266;-58
2022/04/03 11:55:12;;;;;;;;;8.00;8.00;14.40;99.90;;;;;;5071423;28;11462;-59
2022/04/03 11:57:43;;;;;;;;;9.75;9.00;14.40;99.90;;;;;;5074000;28;11446;-58
2022/04/03 12:00:17;;;;;;;;;10.25;8.25;14.40;99.90;;;;;;5081403;28;11411;-57
2022/04/03 12:02:48;;;;;;;;;8.00;6.75;14.30;99.90;;;;;;5064558;28;11411;-57
2022/04/03 12:05:21;;;;;;;;;10.50;10.50;14.30;99.90;;;;;;5054874;28;11422;-58
2022/04/03 12:07:53;;;;;;;;;9.00;8.00;14.30;99.90;;;;;;5062142;28;11439;-58
2022/04/03 12:10:33;;;;;;;;;8.25;7.75;14.30;99.90;;;;;;5060738;28;11663;-57
2022/04/03 12:13:05;;;;;;;;;8.00;8.00;14.20;99.90;;;;;;5067769;28;11507;-59
2022/04/03 12:15:39;;;;;;;;;7.00;6.75;14.20;99.90;;;;;;5075146;28;11623;-58
2022/04/03 12:18:26;;;;;;;;;3.75;3.75;14.20;99.90;;;;;;5079648;28;11446;-58
2022/04/03 12:20:57;;;;;;;;;11.25;11.25;14.20;99.90;;;;;;5080479;28;11428;-58
2022/04/03 12:23:29;;;;;;;;;7.25;7.25;14.20;99.90;;;;;;5051281;28;11572;-58
2022/04/03 12:25:59;;;;;;;;;9.25;8.50;14.10;99.90;;;;;;5071926;28;11420;-59
2022/04/03 12:28:30;;;;;;;;;7.75;7.75;14.10;99.90;;;;;;5073705;28;11446;-58
2022/04/03 12:31:00;;;;;;;;;9.75;9.75;14.00;99.90;;;;;;5063978;28;11464;-58
2022/04/03 12:33:40;;;;;;;;;7.50;6.00;14.00;99.90;;;;;;5071859;28;11632;-59
2022/04/03 12:36:11;;;;;;;;;11.50;9.25;14.00;99.90;;;;;;5077944;28;11411;-59
2022/04/03 12:38:51;;;;;;;;;13.25;8.50;13.90;99.90;;;;;;5079342;28;11409;-58
2022/04/03 12:41:22;;;;;;;;;8.75;8.00;13.90;99.90;;;;;;5056437;28;12239;-58
2022/04/03 12:43:57;;;;;;;;;7.75;7.75;13.90;99.90;;;;;;5074121;28;11527;-58
2022/04/03 12:46:38;;;;;;;;;8.00;6.75;13.90;99.90;;;;;;5080075;28;11497;-58
2022/04/03 12:49:20;;;;;;;;;11.00;9.00;13.80;99.90;;;;;;5066425;28;11703;-58
2022/04/03 12:51:51;;;;;;;;;7.25;7.25;13.80;99.90;;;;;;5064828;28;11662;-57
2022/04/03 12:54:42;;;;;;;;;7.25;6.50;13.80;99.90;;;;;;5082546;27;11438;-59
2022/04/03 13:00:19;;;;;;;;;6.00;6.00;13.80;99.90;;;;;;5077180;28;11432;-57
2022/04/03 13:02:50;;;;;;;;;8.25;8.25;13.80;99.90;;;;;;5076265;28;11475;-58
2022/04/03 13:05:21;;;;;;;;;7.00;7.00;13.70;99.90;;;;;;5068373;28;11856;-58
2022/04/03 13:07:52;;;;;;;;;10.25;10.25;13.70;99.90;;;;;;5077595;28;12225;-58
2022/04/03 13:10:22;;;;;;;;;8.00;8.00;13.70;99.90;;;;;;5070904;28;11691;-59
2022/04/03 13:12:53;;;;;;;;;8.75;8.75;13.70;99.90;;;;;;5073701;28;11489;-57
2022/04/03 13:15:24;;;;;;;;;9.25;9.25;13.60;99.90;;;;;;5071968;28;11449;-57
2022/04/03 13:17:55;;;;;;;;;9.00;7.50;13.60;99.90;;;;;;5074246;28;11514;-59